Time;durP1;ratioP1;P1;durP2;ratioP2;P2;SDS_P1;SDS_P2;PMS_P1;PMS_P2;Temp;Humidity;BMP_temperature;BMP_pressure;BME280_temperature;BME280_humidity;BME280_pressure;Samples;Min_cycle;Max_cycle;Signal;HPM_P1;HPM_P2
2023/02/11 00:01:08;;;;;;;14.80;12.23;;;;;;;;;;5056401;28;20216;-88
2023/02/11 00:03:37;;;;;;;13.52;11.30;;;;;;;;;;5055138;28;20778;-86
2023/02/11 00:06:09;;;;;;;15.15;11.90;;;;;;;;;;5052050;28;20212;-86
2023/02/11 00:08:36;;;;;;;15.05;11.05;;;;;;;;;;5052285;28;20201;-86
2023/02/11 00:11:05;;;;;;;10.93;9.23;;;;;;;;;;5052383;28;20284;-87
2023/02/11 00:13:32;;;;;;;11.85;10.07;;;;;;;;;;5051859;28;20217;-86
2023/02/11 00:16:00;;;;;;;13.02;9.65;;;;;;;;;;5051904;28;20300;-86
2023/02/11 00:18:28;;;;;;;10.55;9.23;;;;;;;;;;5051762;28;20683;-87
2023/02/11 00:20:57;;;;;;;12.48;10.38;;;;;;;;;;5051450;28;20201;-88
2023/02/11 00:23:24;;;;;;;11.52;9.80;;;;;;;;;;5052308;28;20205;-86
2023/02/11 00:25:52;;;;;;;13.68;10.70;;;;;;;;;;5052371;28;20284;-88
2023/02/11 00:28:19;;;;;;;10.25;9.25;;;;;;;;;;5051487;28;20239;-88
2023/02/11 00:30:55;;;;;;;13.77;10.13;;;;;;;;;;5051296;28;20284;-86
2023/02/11 00:33:22;;;;;;;11.48;8.85;;;;;;;;;;5051403;28;20205;-85
2023/02/11 00:35:50;;;;;;;12.18;8.65;;;;;;;;;;5051273;28;20573;-87
2023/02/11 00:38:19;;;;;;;17.02;13.70;;;;;;;;;;5054024;28;20296;-87
2023/02/11 00:40:47;;;;;;;11.75;10.45;;;;;;;;;;5055346;28;20316;-86
2023/02/11 00:43:14;;;;;;;11.90;9.93;;;;;;;;;;5055736;28;20240;-86
2023/02/11 00:45:42;;;;;;;11.25;10.07;;;;;;;;;;5056013;28;20248;-86
2023/02/11 00:48:09;;;;;;;11.88;10.07;;;;;;;;;;5054952;28;20288;-86
2023/02/11 00:50:37;;;;;;;10.00;8.75;;;;;;;;;;5055684;28;20260;-86
2023/02/11 00:53:04;;;;;;;10.13;9.07;;;;;;;;;;5055102;28;20296;-87
2023/02/11 00:55:33;;;;;;;10.45;9.32;;;;;;;;;;5055433;28;20887;-86
2023/02/11 00:58:01;;;;;;;14.70;11.85;;;;;;;;;;5055075;28;20288;-86
2023/02/11 01:00:29;;;;;;;12.43;10.68;;;;;;;;;;5055016;28;20315;-86
2023/02/11 01:02:56;;;;;;;13.07;10.25;;;;;;;;;;5055509;28;20293;-85
2023/02/11 01:05:25;;;;;;;19.10;13.32;;;;;;;;;;5055512;28;20758;-86
2023/02/11 01:07:53;;;;;;;17.65;13.43;;;;;;;;;;5055253;28;20235;-87
2023/02/11 01:10:20;;;;;;;19.98;14.50;;;;;;;;;;5055157;28;20233;-86
2023/02/11 01:12:49;;;;;;;17.13;14.05;;;;;;;;;;5055263;28;20198;-86
2023/02/11 01:15:19;;;;;;;11.45;10.18;;;;;;;;;;5055111;28;20306;-86
2023/02/11 01:17:47;;;;;;;16.13;11.52;;;;;;;;;;5055515;28;20236;-86
2023/02/11 01:20:17;;;;;;;13.77;10.40;;;;;;;;;;5054960;28;20569;-87
2023/02/11 01:22:44;;;;;;;12.88;9.63;;;;;;;;;;5055307;28;20212;-86
2023/02/11 01:25:12;;;;;;;12.70;10.60;;;;;;;;;;5055397;28;20308;-86
2023/02/11 01:27:40;;;;;;;11.93;10.63;;;;;;;;;;5055273;28;20204;-85
2023/02/11 01:30:12;;;;;;;16.70;12.98;;;;;;;;;;5054956;28;20288;-86
2023/02/11 01:32:39;;;;;;;13.25;11.05;;;;;;;;;;5054950;28;20202;-87
2023/02/11 01:35:08;;;;;;;11.70;10.43;;;;;;;;;;5054363;28;20240;-86
2023/02/11 01:37:36;;;;;;;13.65;10.93;;;;;;;;;;5054434;28;20238;-87
2023/02/11 01:40:05;;;;;;;16.90;12.27;;;;;;;;;;5054528;28;20718;-88
2023/02/11 01:42:33;;;;;;;12.35;10.50;;;;;;;;;;5054846;28;20659;-87
2023/02/11 01:45:04;;;;;;;11.38;9.45;;;;;;;;;;5054307;28;20228;-85
2023/02/11 01:47:33;;;;;;;10.60;9.50;;;;;;;;;;5054831;28;20294;-86
2023/02/11 01:50:03;;;;;;;13.23;11.15;;;;;;;;;;5052637;28;20788;-86
2023/02/11 01:52:34;;;;;;;12.02;10.25;;;;;;;;;;5054837;28;20649;-86
2023/02/11 01:57:55;;;;;;;11.10;9.60;;;;;;;;;;5055017;28;20586;-86
2023/02/11 02:00:25;;;;;;;10.50;9.23;;;;;;;;;;5054441;28;20221;-88
2023/02/11 02:02:58;;;;;;;11.90;10.25;;;;;;;;;;5054364;28;20205;-86
2023/02/11 02:05:31;;;;;;;10.90;8.65;;;;;;;;;;5054112;28;20752;-86
2023/02/11 02:08:06;;;;;;;15.15;10.27;;;;;;;;;;5053398;28;20293;-87
2023/02/11 02:10:35;;;;;;;15.65;12.63;;;;;;;;;;5054355;28;20671;-87
2023/02/11 02:13:03;;;;;;;16.90;12.82;;;;;;;;;;5054019;28;20641;-87
2023/02/11 02:15:33;;;;;;;16.27;12.48;;;;;;;;;;5054368;28;20347;-89
2023/02/11 02:18:15;;;;;;;13.45;10.13;;;;;;;;;;5053159;28;20206;-86
2023/02/11 02:21:29;;;;;;;14.38;10.93;;;;;;;;;;5069863;28;20689;-86
2023/02/11 02:24:35;;;;;;;11.77;10.02;;;;;;;;;;5074235;28;20220;-86
2023/02/11 02:27:46;;;;;;;12.15;10.18;;;;;;;;;;5064179;28;20721;-86
2023/02/11 02:31:10;;;;;;;11.75;9.98;;;;;;;;;;5074445;28;20203;-86
2023/02/11 02:33:46;;;;;;;12.55;9.77;;;;;;;;;;5084926;22;20232;-81
2023/02/11 02:36:19;;;;;;;10.77;9.43;;;;;;;;;;5093597;28;20200;-80
2023/02/11 02:38:53;;;;;;;13.18;10.23;;;;;;;;;;5093128;28;20593;-79
2023/02/11 02:41:23;;;;;;;13.80;10.32;;;;;;;;;;5093586;28;20228;-79
2023/02/11 02:43:52;;;;;;;12.80;10.38;;;;;;;;;;5093357;28;20204;-79
2023/02/11 02:46:22;;;;;;;13.93;10.85;;;;;;;;;;5093484;28;20204;-80
2023/02/11 02:48:53;;;;;;;15.82;10.68;;;;;;;;;;5115614;22;20220;-86
2023/02/11 02:51:35;;;;;;;14.43;11.88;;;;;;;;;;5093183;28;20290;-84
2023/02/11 02:54:29;;;;;;;16.35;12.25;;;;;;;;;;5087247;28;20221;-84
2023/02/11 02:57:04;;;;;;;16.55;12.43;;;;;;;;;;5073404;28;20197;-84
2023/02/11 02:59:44;;;;;;;21.33;14.32;;;;;;;;;;5072617;28;20195;-83
2023/02/11 03:02:18;;;;;;;19.52;15.02;;;;;;;;;;5072849;28;20712;-84
2023/02/11 03:04:55;;;;;;;14.52;11.77;;;;;;;;;;5072860;28;20228;-84
2023/02/11 03:07:27;;;;;;;15.57;13.00;;;;;;;;;;5073431;28;20209;-84
2023/02/11 03:09:58;;;;;;;13.48;9.82;;;;;;;;;;5072917;28;20197;-84
2023/02/11 03:12:27;;;;;;;15.73;10.65;;;;;;;;;;5073443;28;20211;-84
2023/02/11 03:14:55;;;;;;;13.15;9.60;;;;;;;;;;5073295;28;20316;-84
2023/02/11 03:17:24;;;;;;;12.30;10.38;;;;;;;;;;5073150;28;20235;-83
2023/02/11 03:19:52;;;;;;;15.43;11.50;;;;;;;;;;5073002;28;20632;-84
2023/02/11 03:22:25;;;;;;;15.57;11.93;;;;;;;;;;5073014;28;20598;-84
2023/02/11 03:24:52;;;;;;;22.27;14.13;;;;;;;;;;5072843;28;20228;-84
2023/02/11 03:27:25;;;;;;;17.92;12.57;;;;;;;;;;5072558;28;20292;-84
2023/02/11 03:29:55;;;;;;;17.15;13.38;;;;;;;;;;5072167;28;20201;-83
2023/02/11 03:32:27;;;;;;;15.63;12.35;;;;;;;;;;5072696;28;20272;-84
2023/02/11 03:34:59;;;;;;;21.48;13.82;;;;;;;;;;5072596;28;20585;-83
2023/02/11 03:37:29;;;;;;;14.43;11.15;;;;;;;;;;5073013;28;20624;-84
2023/02/11 03:40:00;;;;;;;14.13;11.30;;;;;;;;;;5072470;28;20205;-84
2023/02/11 03:42:32;;;;;;;14.55;12.63;;;;;;;;;;5072578;28;20205;-84
2023/02/11 03:45:03;;;;;;;12.85;10.73;;;;;;;;;;5072718;28;20331;-84
2023/02/11 03:47:33;;;;;;;18.98;14.88;;;;;;;;;;5072631;28;20185;-83
2023/02/11 03:50:05;;;;;;;14.32;10.88;;;;;;;;;;5071804;28;20219;-83
2023/02/11 03:52:33;;;;;;;15.13;12.82;;;;;;;;;;5072043;28;20193;-84
2023/02/11 03:55:03;;;;;;;13.60;10.30;;;;;;;;;;5072024;28;20267;-84
2023/02/11 03:57:33;;;;;;;12.68;9.93;;;;;;;;;;5072175;28;20649;-84
2023/02/11 04:00:00;;;;;;;10.38;9.18;;;;;;;;;;5071462;28;20291;-85
2023/02/11 04:02:31;;;;;;;11.38;9.43;;;;;;;;;;5071877;28;20312;-84
2023/02/11 04:05:01;;;;;;;10.00;8.95;;;;;;;;;;5072087;28;20247;-84
2023/02/11 04:07:29;;;;;;;13.65;10.85;;;;;;;;;;5071947;28;20693;-85
2023/02/11 04:09:56;;;;;;;17.63;13.82;;;;;;;;;;5071196;28;20201;-83
2023/02/11 04:12:24;;;;;;;22.08;15.75;;;;;;;;;;5070398;28;20287;-84
2023/02/11 04:14:51;;;;;;;20.05;13.35;;;;;;;;;;5071887;28;20312;-84
2023/02/11 04:17:19;;;;;;;14.93;13.10;;;;;;;;;;5071513;28;20292;-85
2023/02/11 04:19:46;;;;;;;16.17;12.43;;;;;;;;;;5071501;28;20284;-84
2023/02/11 04:22:15;;;;;;;12.85;11.48;;;;;;;;;;5071463;28;20230;-83
2023/02/11 04:24:43;;;;;;;14.52;11.55;;;;;;;;;;5071691;28;20213;-84
2023/02/11 04:27:11;;;;;;;14.00;10.82;;;;;;;;;;5071178;28;20207;-84
2023/02/11 04:29:38;;;;;;;15.48;12.05;;;;;;;;;;5071032;28;20292;-84
2023/02/11 04:32:06;;;;;;;15.23;12.13;;;;;;;;;;5071492;28;20192;-83
2023/02/11 04:34:34;;;;;;;15.63;12.13;;;;;;;;;;5071645;28;20757;-87
2023/02/11 04:37:01;;;;;;;17.02;12.77;;;;;;;;;;5071679;28;20291;-84
2023/02/11 04:39:30;;;;;;;15.20;11.95;;;;;;;;;;5071264;28;20241;-83
2023/02/11 04:42:07;;;;;;;;;;;;;;;;;;;;;
2023/02/11 04:44:33;;;;;;;22.08;14.02;;;;;;;;;;5071600;28;20696;-83
2023/02/11 04:47:00;;;;;;;18.45;15.45;;;;;;;;;;5071903;28;21013;-84
2023/02/11 04:49:28;;;;;;;23.27;17.08;;;;;;;;;;5071293;28;20235;-85
2023/02/11 04:51:55;;;;;;;24.73;18.48;;;;;;;;;;5071331;28;20204;-84
2023/02/11 04:54:23;;;;;;;17.83;13.48;;;;;;;;;;5071711;28;20312;-86
2023/02/11 04:56:52;;;;;;;18.20;14.60;;;;;;;;;;5071476;28;20203;-84
2023/02/11 04:59:19;;;;;;;17.10;13.27;;;;;;;;;;5071540;28;20292;-84
2023/02/11 05:01:47;;;;;;;15.10;13.38;;;;;;;;;;5071225;28;20316;-84
2023/02/11 05:04:14;;;;;;;20.50;14.38;;;;;;;;;;5071137;28;20287;-84
2023/02/11 05:06:42;;;;;;;18.10;12.45;;;;;;;;;;5071926;28;20570;-84
2023/02/11 05:09:11;;;;;;;16.45;12.75;;;;;;;;;;5071643;28;20637;-84
2023/02/11 05:11:38;;;;;;;14.40;11.40;;;;;;;;;;5071602;28;20201;-84
2023/02/11 05:14:07;;;;;;;15.15;11.57;;;;;;;;;;5071076;28;20278;-83
2023/02/11 05:16:35;;;;;;;22.25;15.75;;;;;;;;;;5070831;28;20219;-85
2023/02/11 05:19:03;;;;;;;13.57;11.02;;;;;;;;;;5069595;28;20637;-84
2023/02/11 05:21:30;;;;;;;18.45;13.55;;;;;;;;;;5051054;28;20292;-84
2023/02/11 05:23:58;;;;;;;14.30;12.60;;;;;;;;;;5053519;28;20611;-85
2023/02/11 05:26:26;;;;;;;21.52;17.02;;;;;;;;;;5054969;28;20209;-83
2023/02/11 05:28:53;;;;;;;16.88;13.20;;;;;;;;;;5054920;28;20308;-84
2023/02/11 05:31:22;;;;;;;17.88;13.68;;;;;;;;;;5055110;28;20288;-84
2023/02/11 05:33:49;;;;;;;21.98;14.55;;;;;;;;;;5054832;28;20249;-84
2023/02/11 05:36:17;;;;;;;22.40;16.80;;;;;;;;;;5054617;28;20297;-84
2023/02/11 05:38:44;;;;;;;18.60;14.98;;;;;;;;;;5054651;28;20292;-84
2023/02/11 05:41:12;;;;;;;18.10;13.50;;;;;;;;;;5054857;28;20292;-83
2023/02/11 05:43:40;;;;;;;15.88;12.20;;;;;;;;;;5054346;28;20316;-84
2023/02/11 05:46:07;;;;;;;16.90;12.93;;;;;;;;;;5054607;28;20209;-85
2023/02/11 05:48:36;;;;;;;17.02;13.32;;;;;;;;;;5054016;28;20678;-85
2023/02/11 05:51:04;;;;;;;13.10;10.50;;;;;;;;;;5054698;28;20212;-85
2023/02/11 05:53:31;;;;;;;15.65;12.63;;;;;;;;;;5054294;28;20217;-85
2023/02/11 05:55:59;;;;;;;13.23;10.63;;;;;;;;;;5054512;28;20297;-85
2023/02/11 05:58:26;;;;;;;14.27;11.30;;;;;;;;;;5053584;28;20201;-84
2023/02/11 06:00:54;;;;;;;14.32;11.82;;;;;;;;;;5054244;28;20293;-85
2023/02/11 06:03:21;;;;;;;18.38;14.63;;;;;;;;;;5054201;28;20601;-85
2023/02/11 06:05:50;;;;;;;16.55;13.02;;;;;;;;;;5053838;28;20292;-85
2023/02/11 06:08:18;;;;;;;13.10;11.52;;;;;;;;;;5054437;28;20272;-84
2023/02/11 06:10:46;;;;;;;16.10;12.40;;;;;;;;;;5053723;28;20205;-85
2023/02/11 06:13:13;;;;;;;14.43;12.00;;;;;;;;;;5053919;28;20648;-85
2023/02/11 06:15:41;;;;;;;16.20;13.13;;;;;;;;;;5053426;28;20268;-84
2023/02/11 06:18:08;;;;;;;17.73;14.05;;;;;;;;;;5053470;28;20198;-85
2023/02/11 06:20:36;;;;;;;16.77;13.18;;;;;;;;;;5068492;28;20233;-85
2023/02/11 06:23:05;;;;;;;15.27;11.35;;;;;;;;;;5073899;28;20228;-84
2023/02/11 06:25:32;;;;;;;21.42;14.75;;;;;;;;;;5073773;28;20227;-85
2023/02/11 06:27:59;;;;;;;14.70;11.73;;;;;;;;;;5073563;28;20215;-85
2023/02/11 06:30:27;;;;;;;16.75;12.45;;;;;;;;;;5073922;28;20288;-89
2023/02/11 06:32:54;;;;;;;14.25;11.27;;;;;;;;;;5073338;28;20201;-85
2023/02/11 06:35:22;;;;;;;15.73;12.27;;;;;;;;;;5073244;28;20315;-85
2023/02/11 06:37:52;;;;;;;16.60;11.95;;;;;;;;;;5073540;28;20236;-84
2023/02/11 06:40:21;;;;;;;19.88;15.38;;;;;;;;;;5073746;28;20548;-85
2023/02/11 06:42:49;;;;;;;15.90;12.63;;;;;;;;;;5073143;28;20601;-85
2023/02/11 06:45:16;;;;;;;18.20;14.00;;;;;;;;;;5073163;28;20311;-85
2023/02/11 06:47:44;;;;;;;21.25;17.55;;;;;;;;;;5073215;28;20696;-84
2023/02/11 06:50:14;;;;;;;21.02;15.38;;;;;;;;;;5061439;28;20218;-85
2023/02/11 06:52:41;;;;;;;17.25;13.98;;;;;;;;;;5053155;28;20197;-87
2023/02/11 06:55:09;;;;;;;13.55;11.60;;;;;;;;;;5052757;28;20308;-84
2023/02/11 06:57:38;;;;;;;17.85;13.75;;;;;;;;;;5052972;28;20194;-87
2023/02/11 07:00:08;;;;;;;14.43;12.15;;;;;;;;;;5053123;28;20289;-84
2023/02/11 07:02:35;;;;;;;13.32;11.27;;;;;;;;;;5053016;28;20755;-85
2023/02/11 07:05:03;;;;;;;14.90;12.77;;;;;;;;;;5053011;28;20231;-85
2023/02/11 07:07:31;;;;;;;20.52;16.60;;;;;;;;;;5052288;28;20202;-85
2023/02/11 07:09:58;;;;;;;16.90;14.80;;;;;;;;;;5053072;28;20255;-84
2023/02/11 07:12:26;;;;;;;18.05;13.10;;;;;;;;;;5052679;28;20607;-84
2023/02/11 07:14:57;;;;;;;19.27;15.30;;;;;;;;;;5053461;28;20268;-85
2023/02/11 07:17:24;;;;;;;14.38;11.57;;;;;;;;;;5053298;28;20206;-83
2023/02/11 07:19:51;;;;;;;15.13;12.20;;;;;;;;;;5052322;28;20210;-84
2023/02/11 07:22:19;;;;;;;18.67;12.05;;;;;;;;;;5051687;28;20288;-84
2023/02/11 07:24:46;;;;;;;12.57;10.05;;;;;;;;;;5051911;28;20320;-84
2023/02/11 07:27:14;;;;;;;13.30;9.57;;;;;;;;;;5052601;28;20212;-84
2023/02/11 07:29:44;;;;;;;11.10;8.75;;;;;;;;;;5052994;28;20232;-85
2023/02/11 07:32:13;;;;;;;14.68;10.38;;;;;;;;;;5052812;28;20194;-85
2023/02/11 07:34:41;;;;;;;13.70;11.43;;;;;;;;;;5052581;28;20800;-83
2023/02/11 07:37:09;;;;;;;13.32;11.23;;;;;;;;;;5052856;28;20662;-86
2023/02/11 07:39:37;;;;;;;14.73;10.70;;;;;;;;;;5052740;28;20288;-84
2023/02/11 07:42:05;;;;;;;15.68;12.30;;;;;;;;;;5053121;28;20292;-84
2023/02/11 07:44:33;;;;;;;13.85;10.35;;;;;;;;;;5052507;28;20328;-85
2023/02/11 07:47:01;;;;;;;14.27;11.57;;;;;;;;;;5052605;28;20205;-84
2023/02/11 07:49:30;;;;;;;13.40;10.05;;;;;;;;;;5057363;28;20379;-85
2023/02/11 07:51:58;;;;;;;13.10;10.60;;;;;;;;;;5072026;28;20219;-85
2023/02/11 07:54:25;;;;;;;14.52;10.07;;;;;;;;;;5071994;28;20213;-84
2023/02/11 07:56:52;;;;;;;11.68;9.20;;;;;;;;;;5072392;28;20284;-85
2023/02/11 07:59:20;;;;;;;9.65;8.00;;;;;;;;;;5071923;28;20697;-84
2023/02/11 08:01:50;;;;;;;18.08;12.80;;;;;;;;;;5071894;28;20300;-84
2023/02/11 08:04:18;;;;;;;23.60;16.17;;;;;;;;;;5072169;28;20232;-84
2023/02/11 08:06:46;;;;;;;16.20;12.93;;;;;;;;;;5072165;28;20295;-84
2023/02/11 08:09:16;;;;;;;21.17;15.48;;;;;;;;;;5072431;28;20287;-85
2023/02/11 08:11:44;;;;;;;14.13;10.00;;;;;;;;;;5071812;28;20279;-83
2023/02/11 08:14:12;;;;;;;8.10;7.20;;;;;;;;;;5071887;28;20244;-85
2023/02/11 08:16:40;;;;;;;8.35;6.95;;;;;;;;;;5072187;28;20208;-85
2023/02/11 08:19:11;;;;;;;8.65;7.13;;;;;;;;;;5072095;28;20208;-85
2023/02/11 08:21:39;;;;;;;7.50;6.72;;;;;;;;;;5072080;28;20201;-85
2023/02/11 08:24:09;;;;;;;8.65;6.20;;;;;;;;;;5071518;28;20229;-85
2023/02/11 08:26:37;;;;;;;9.02;7.32;;;;;;;;;;5071621;28;20283;-84
2023/02/11 08:29:10;;;;;;;17.83;12.88;;;;;;;;;;5072411;28;20213;-86
2023/02/11 08:31:41;;;;;;;20.00;16.13;;;;;;;;;;5072335;28;20289;-85
2023/02/11 08:34:10;;;;;;;19.42;15.27;;;;;;;;;;5086289;22;20259;-81
2023/02/11 08:36:39;;;;;;;21.13;17.25;;;;;;;;;;5062833;28;20211;-82
2023/02/11 08:39:11;;;;;;;19.00;14.30;;;;;;;;;;5071167;28;20216;-81
2023/02/11 08:41:39;;;;;;;16.42;12.25;;;;;;;;;;5073523;28;20201;-81
2023/02/11 08:44:06;;;;;;;20.27;15.00;;;;;;;;;;5077147;28;20264;-81
2023/02/11 08:46:34;;;;;;;18.30;14.70;;;;;;;;;;5092266;28;20292;-81
2023/02/11 08:49:01;;;;;;;13.73;12.27;;;;;;;;;;5107376;22;20260;-86
2023/02/11 08:51:30;;;;;;;16.50;12.48;;;;;;;;;;5078299;28;20224;-88
2023/02/11 08:53:58;;;;;;;16.65;10.90;;;;;;;;;;5078585;28;20221;-86
2023/02/11 08:56:30;;;;;;;13.98;11.18;;;;;;;;;;5078086;28;20211;-86
2023/02/11 08:58:57;;;;;;;25.63;16.70;;;;;;;;;;5078203;28;20208;-87
2023/02/11 09:01:28;;;;;;;16.30;13.43;;;;;;;;;;5080661;28;20229;-88
2023/02/11 09:03:56;;;;;;;15.13;12.88;;;;;;;;;;5080106;28;20243;-88
2023/02/11 09:06:24;;;;;;;21.10;15.18;;;;;;;;;;5079143;28;20293;-88
2023/02/11 09:08:55;;;;;;;12.55;11.25;;;;;;;;;;5079346;28;20287;-88
2023/02/11 09:11:28;;;;;;;13.50;11.55;;;;;;;;;;5079030;28;20269;-88
2023/02/11 09:13:55;;;;;;;12.05;10.85;;;;;;;;;;5078186;28;20320;-88
2023/02/11 09:16:26;;;;;;;20.13;14.50;;;;;;;;;;5078327;28;20560;-88
2023/02/11 09:18:54;;;;;;;18.42;13.43;;;;;;;;;;5077318;28;20204;-88
2023/02/11 09:21:21;;;;;;;17.38;14.07;;;;;;;;;;5078147;28;20231;-86
2023/02/11 09:23:49;;;;;;;17.70;14.80;;;;;;;;;;5077203;28;20201;-87
2023/02/11 09:26:19;;;;;;;17.67;15.30;;;;;;;;;;5077085;28;20229;-86
2023/02/11 09:28:50;;;;;;;16.65;14.05;;;;;;;;;;5077039;28;20378;-86
2023/02/11 09:31:20;;;;;;;12.13;10.85;;;;;;;;;;5078251;28;20637;-86
2023/02/11 09:33:50;;;;;;;14.25;11.38;;;;;;;;;;5077471;28;20291;-86
2023/02/11 09:36:20;;;;;;;18.80;14.13;;;;;;;;;;5076887;28;20652;-86
2023/02/11 09:38:48;;;;;;;12.35;10.50;;;;;;;;;;5076451;28;20185;-86
2023/02/11 09:41:35;;;;;;;10.60;9.52;;;;;;;;;;5076680;28;20197;-86
2023/02/11 09:44:08;;;;;;;20.85;14.82;;;;;;;;;;5077275;28;20189;-87
2023/02/11 09:46:40;;;;;;;19.73;15.70;;;;;;;;;;5076970;28;20243;-87
2023/02/11 09:49:14;;;;;;;14.77;11.95;;;;;;;;;;5076064;28;20208;-87
2023/02/11 09:51:46;;;;;;;13.10;10.70;;;;;;;;;;5076191;28;20676;-86
2023/02/11 09:54:17;;;;;;;13.82;11.43;;;;;;;;;;5076661;28;20311;-87
2023/02/11 09:56:44;;;;;;;13.35;10.80;;;;;;;;;;5076826;28;20235;-89
2023/02/11 09:59:16;;;;;;;14.82;11.77;;;;;;;;;;5078615;28;20247;-87
2023/02/11 10:01:47;;;;;;;13.55;10.80;;;;;;;;;;5079304;28;20205;-88
2023/02/11 10:04:24;;;;;;;15.77;10.30;;;;;;;;;;5078167;28;20209;-88
2023/02/11 10:06:54;;;;;;;7.50;6.70;;;;;;;;;;5079467;28;20291;-87
2023/02/11 10:09:37;;;;;;;10.68;7.78;;;;;;;;;;5076544;28;20200;-87
2023/02/11 10:12:20;;;;;;;7.85;6.57;;;;;;;;;;5077306;28;20197;-86
2023/02/11 10:15:15;;;;;;;8.45;6.25;;;;;;;;;;5076951;28;20319;-87
2023/02/11 10:18:02;;;;;;;6.00;5.40;;;;;;;;;;5078002;28;20203;-88
2023/02/11 10:20:36;;;;;;;17.60;13.45;;;;;;;;;;5078045;28;20193;-87
2023/02/11 10:23:13;;;;;;;20.33;15.48;;;;;;;;;;5074657;28;20235;-87
2023/02/11 10:25:44;;;;;;;12.40;10.68;;;;;;;;;;5076450;28;20295;-87
2023/02/11 10:28:15;;;;;;;10.93;9.13;;;;;;;;;;5077658;28;20203;-88
2023/02/11 10:30:52;;;;;;;14.70;11.80;;;;;;;;;;5079262;28;20657;-87
2023/02/11 10:33:25;;;;;;;18.20;13.80;;;;;;;;;;5079106;28;20265;-88
2023/02/11 10:35:53;;;;;;;19.85;15.05;;;;;;;;;;5077871;28;20228;-86
2023/02/11 10:38:20;;;;;;;17.20;13.73;;;;;;;;;;5076430;28;20228;-87
2023/02/11 10:40:48;;;;;;;15.63;12.45;;;;;;;;;;5076856;28;20217;-85
2023/02/11 10:43:17;;;;;;;19.60;15.07;;;;;;;;;;5079014;28;20264;-87
2023/02/11 10:45:50;;;;;;;22.83;15.98;;;;;;;;;;5077863;28;20313;-87
2023/02/11 10:48:39;;;;;;;17.65;14.57;;;;;;;;;;5077733;28;20630;-86
2023/02/11 10:51:18;;;;;;;15.48;12.55;;;;;;;;;;5076410;28;20195;-87
2023/02/11 10:53:47;;;;;;;20.98;16.10;;;;;;;;;;5076740;28;20326;-87
2023/02/11 10:56:24;;;;;;;20.10;15.48;;;;;;;;;;5075878;28;20240;-87
2023/02/11 10:59:02;;;;;;;21.30;17.30;;;;;;;;;;5077200;28;20612;-88
2023/02/11 11:01:43;;;;;;;16.02;14.02;;;;;;;;;;5077990;28;20227;-87
2023/02/11 11:04:34;;;;;;;14.63;12.82;;;;;;;;;;5077171;28;20312;-87
2023/02/11 11:07:13;;;;;;;16.98;14.43;;;;;;;;;;5076726;28;20391;-87
2023/02/11 11:09:50;;;;;;;15.15;12.18;;;;;;;;;;5075799;28;20296;-86
2023/02/11 11:12:33;;;;;;;18.65;14.48;;;;;;;;;;5075772;28;20239;-87
2023/02/11 11:15:15;;;;;;;21.50;14.60;;;;;;;;;;5076161;28;20290;-86
2023/02/11 11:17:44;;;;;;;22.35;15.65;;;;;;;;;;5075629;28;20205;-87
2023/02/11 11:20:27;;;;;;;18.83;13.73;;;;;;;;;;5075808;28;20224;-87
2023/02/11 11:23:11;;;;;;;18.25;14.98;;;;;;;;;;5076410;28;20200;-87
2023/02/11 11:25:43;;;;;;;14.07;11.40;;;;;;;;;;5076121;28;20236;-87
2023/02/11 11:28:22;;;;;;;19.95;15.63;;;;;;;;;;5076093;28;20192;-88
2023/02/11 11:30:50;;;;;;;17.33;15.13;;;;;;;;;;5075991;28;20291;-87
2023/02/11 11:33:23;;;;;;;17.42;13.48;;;;;;;;;;5076482;28;20254;-87
2023/02/11 11:36:02;;;;;;;15.63;13.50;;;;;;;;;;5075417;28;20225;-88
2023/02/11 11:38:30;;;;;;;15.95;14.02;;;;;;;;;;5074638;28;20283;-89
2023/02/11 11:41:24;;;;;;;15.90;12.40;;;;;;;;;;5076293;28;20262;-87
2023/02/11 11:43:57;;;;;;;12.00;9.45;;;;;;;;;;5076333;28;20636;-87
2023/02/11 11:46:29;;;;;;;11.30;9.27;;;;;;;;;;5076487;28;20268;-88
2023/02/11 11:49:07;;;;;;;11.70;9.20;;;;;;;;;;5075888;28;20213;-86
2023/02/11 11:51:36;;;;;;;9.27;7.93;;;;;;;;;;5076359;28;20211;-86
2023/02/11 11:54:06;;;;;;;10.25;8.27;;;;;;;;;;5076753;28;20283;-88
2023/02/11 11:56:36;;;;;;;10.95;8.43;;;;;;;;;;5080133;28;20217;-88
2023/02/11 11:59:12;;;;;;;9.13;7.13;;;;;;;;;;5080235;28;20197;-87
2023/02/11 12:01:50;;;;;;;8.27;7.10;;;;;;;;;;5080217;28;20197;-88
2023/02/11 12:04:41;;;;;;;7.70;6.45;;;;;;;;;;5080273;28;20307;-87
2023/02/11 12:07:21;;;;;;;7.55;6.80;;;;;;;;;;5078201;28;20274;-86
2023/02/11 12:10:16;;;;;;;7.85;7.05;;;;;;;;;;5076250;28;20268;-86
2023/02/11 12:12:50;;;;;;;7.22;6.47;;;;;;;;;;5079741;28;20193;-87
2023/02/11 12:15:39;;;;;;;7.53;6.78;;;;;;;;;;5078761;28;20231;-87
2023/02/11 12:18:28;;;;;;;8.57;7.07;;;;;;;;;;5079662;28;20197;-86
2023/02/11 12:21:24;;;;;;;5.40;4.75;;;;;;;;;;5079626;28;20207;-86
2023/02/11 12:24:06;;;;;;;7.15;6.25;;;;;;;;;;5076386;28;20246;-86
2023/02/11 12:26:41;;;;;;;8.95;6.97;;;;;;;;;;5075909;28;20289;-87
2023/02/11 12:29:19;;;;;;;5.50;4.90;;;;;;;;;;5080578;28;20236;-87
2023/02/11 12:32:02;;;;;;;5.85;4.63;;;;;;;;;;5075284;28;20213;-86
2023/02/11 12:35:01;;;;;;;6.32;5.55;;;;;;;;;;5073534;28;20221;-86
2023/02/11 12:37:47;;;;;;;8.50;7.05;;;;;;;;;;5064290;28;20319;-88
2023/02/11 12:40:20;;;;;;;7.18;6.28;;;;;;;;;;5074821;28;20246;-86
2023/02/11 12:43:17;;;;;;;8.00;6.68;;;;;;;;;;5074640;28;20205;-87
2023/02/11 12:46:22;;;;;;;8.70;7.80;;;;;;;;;;5074542;28;20587;-86
2023/02/11 12:49:18;;;;;;;9.98;7.38;;;;;;;;;;5066605;28;20219;-86
2023/02/11 12:51:59;;;;;;;7.85;6.43;;;;;;;;;;5075402;28;20295;-86
2023/02/11 12:54:31;;;;;;;8.00;6.22;;;;;;;;;;5073214;28;20229;-87
2023/02/11 12:57:03;;;;;;;8.30;6.93;;;;;;;;;;5072962;28;20221;-86
2023/02/11 12:59:41;;;;;;;6.85;6.15;;;;;;;;;;5073056;28;20259;-87
2023/02/11 13:02:20;;;;;;;9.60;6.82;;;;;;;;;;5072895;28;20626;-87
2023/02/11 13:04:52;;;;;;;7.07;5.82;;;;;;;;;;5073283;28;20312;-88
2023/02/11 13:07:25;;;;;;;7.90;7.10;;;;;;;;;;5074357;28;20753;-87
2023/02/11 13:10:00;;;;;;;9.85;8.43;;;;;;;;;;5075259;28;20732;-86
2023/02/11 13:15:16;;;;;;;9.75;8.15;;;;;;;;;;5072535;28;20219;-86
2023/02/11 13:17:53;;;;;;;12.65;9.00;;;;;;;;;;5073318;28;20225;-87
2023/02/11 13:20:35;;;;;;;15.38;12.13;;;;;;;;;;5073560;28;20205;-86
2023/02/11 13:23:12;;;;;;;27.15;24.27;;;;;;;;;;5073090;28;20264;-87
2023/02/11 13:25:46;;;;;;;13.85;11.63;;;;;;;;;;5073528;28;20224;-87
2023/02/11 13:28:41;;;;;;;9.60;8.68;;;;;;;;;;5073526;28;20195;-87
2023/02/11 13:31:11;;;;;;;13.77;12.18;;;;;;;;;;5073645;28;20197;-87
2023/02/11 13:33:41;;;;;;;12.52;10.13;;;;;;;;;;5073845;28;20196;-87
2023/02/11 13:36:24;;;;;;;15.30;12.07;;;;;;;;;;5074242;28;20224;-87
2023/02/11 13:39:01;;;;;;;11.35;8.48;;;;;;;;;;5072422;28;20209;-87
2023/02/11 13:41:34;;;;;;;11.45;9.10;;;;;;;;;;5073323;28;20200;-86
2023/02/11 13:44:21;;;;;;;10.40;8.25;;;;;;;;;;5073421;28;20735;-86
2023/02/11 13:47:00;;;;;;;8.10;7.07;;;;;;;;;;5076628;28;20229;-88
2023/02/11 13:49:34;;;;;;;9.43;8.27;;;;;;;;;;5075887;28;20298;-86
2023/02/11 13:52:03;;;;;;;10.23;7.53;;;;;;;;;;5075702;28;20200;-87
2023/02/11 13:54:35;;;;;;;9.95;7.63;;;;;;;;;;5076337;28;20313;-86
2023/02/11 13:57:36;;;;;;;7.97;7.18;;;;;;;;;;5075838;28;20312;-86
2023/02/11 14:00:47;;;;;;;10.73;8.13;;;;;;;;;;5043972;28;20552;-87
2023/02/11 14:09:40;;;;;;;12.63;8.85;;;;;;;;;;5074849;28;20204;-86
2023/02/11 14:12:35;;;;;;;7.25;6.47;;;;;;;;;;5053542;28;20292;-86
2023/02/11 14:15:23;;;;;;;14.15;8.90;;;;;;;;;;5055587;28;20748;-86
2023/02/11 14:17:51;;;;;;;7.55;6.75;;;;;;;;;;5054305;28;20228;-86
2023/02/11 14:20:44;;;;;;;9.32;7.80;;;;;;;;;;5055093;28;20228;-87
2023/02/11 14:23:26;;;;;;;9.02;7.72;;;;;;;;;;5054309;28;20202;-87
2023/02/11 14:26:25;;;;;;;10.43;8.55;;;;;;;;;;5054595;28;20690;-86
2023/02/11 14:29:00;;;;;;;10.65;9.45;;;;;;;;;;5054494;28;20573;-86
2023/02/11 14:31:29;;;;;;;10.20;8.45;;;;;;;;;;5054619;28;20193;-86
2023/02/11 14:34:12;;;;;;;10.95;7.93;;;;;;;;;;5054238;28;20202;-87
2023/02/11 14:37:00;;;;;;;14.27;8.25;;;;;;;;;;5063037;22;20248;-85
2023/02/11 14:39:42;;;;;;;9.48;7.57;;;;;;;;;;5052447;28;20279;-86
2023/02/11 14:42:18;;;;;;;11.60;9.25;;;;;;;;;;5053170;28;20243;-86
2023/02/11 14:44:49;;;;;;;11.95;7.72;;;;;;;;;;5053034;28;20576;-86
2023/02/11 14:47:21;;;;;;;12.95;7.70;;;;;;;;;;5052813;28;20198;-86
2023/02/11 14:49:49;;;;;;;9.60;7.65;;;;;;;;;;5065263;22;1384369;-78
2023/02/11 14:52:25;;;;;;;10.68;9.18;;;;;;;;;;5075532;28;20208;-80
2023/02/11 14:54:54;;;;;;;11.00;8.52;;;;;;;;;;5073537;28;20208;-80
2023/02/11 14:57:21;;;;;;;10.27;8.43;;;;;;;;;;5072821;28;20252;-80
2023/02/11 15:00:01;;;;;;;11.63;9.85;;;;;;;;;;5073469;28;20231;-80
2023/02/11 15:02:33;;;;;;;9.80;7.80;;;;;;;;;;5073612;28;20227;-80
2023/02/11 15:05:19;;;;;;;11.15;7.20;;;;;;;;;;5098402;28;20308;-80
2023/02/11 15:07:49;;;;;;;9.65;7.00;;;;;;;;;;5096346;28;20217;-79